createdAt,value
2022-07-29T00:00:17.718Z,101367.28
2022-07-29T00:02:46.799Z,101367.44
2022-07-29T00:05:14.576Z,101369.25
2022-07-29T00:07:42.713Z,101368.69
2022-07-29T00:10:10.784Z,101366.38
2022-07-29T00:12:38.442Z,101377.25
2022-07-29T00:15:08.074Z,101378.34
2022-07-29T00:17:35.715Z,101383.84
2022-07-29T00:20:05.814Z,101384.88
2022-07-29T00:22:33.602Z,101372.69
2022-07-29T00:25:01.249Z,101396.22
2022-07-29T00:27:28.973Z,101383.22
2022-07-29T00:29:56.608Z,101388.59
2022-07-29T00:32:24.263Z,101393.41
2022-07-29T00:35:09.729Z,101392.75
2022-07-29T00:37:38.731Z,101392.84
2022-07-29T00:40:07.511Z,101395.59
2022-07-29T00:42:43.883Z,101389.53
2022-07-29T00:45:12.362Z,101396.78
2022-07-29T00:47:40.257Z,101407.97
2022-07-29T00:50:10.401Z,101390.38
2022-07-29T00:52:40.933Z,101390.53
2022-07-29T00:55:12.052Z,101385.31
2022-07-29T00:57:40.580Z,101396.06
2022-07-29T01:00:11.266Z,101400.63
2022-07-29T01:02:39.069Z,101397.16
2022-07-29T01:05:07.910Z,101407.09
2022-07-29T01:07:36.895Z,101405.38
2022-07-29T01:10:08.490Z,101400.13
2022-07-29T01:12:37.399Z,101395.72
2022-07-29T01:15:07.462Z,101391.63
2022-07-29T01:17:41.314Z,101397.31
2022-07-29T01:20:31.899Z,101408.13
2022-07-29T01:23:24.585Z,101402.22
2022-07-29T01:26:20.490Z,101409.34
2022-07-29T01:29:00.668Z,101408.38
2022-07-29T01:31:53.822Z,101384.38
2022-07-29T01:34:33.053Z,101386.47
2022-07-29T01:37:09.233Z,101395.53
2022-07-29T01:39:40.686Z,101394.84
2022-07-29T01:42:15.840Z,101390.41
2022-07-29T01:44:55.155Z,101378.94
2022-07-29T01:47:27.547Z,101382.59
2022-07-29T01:49:58.723Z,101377.50
2022-07-29T01:52:35.704Z,101381.09
2022-07-29T01:55:10.061Z,101383.66
2022-07-29T01:57:39.927Z,101381.84
2022-07-29T02:00:11.181Z,101373.75
2022-07-29T02:02:41.294Z,101369.25
2022-07-29T02:05:11.641Z,101368.31
2022-07-29T02:07:42.192Z,101373.69
2022-07-29T02:10:12.522Z,101365.53
2022-07-29T02:12:42.331Z,101369.25
2022-07-29T02:15:13.444Z,101375.56
2022-07-29T02:17:45.752Z,101376.44
2022-07-29T02:23:07.798Z,101380.06
2022-07-29T02:25:38.095Z,101382.06
2022-07-29T02:28:07.950Z,101387.44
2022-07-29T02:30:41.006Z,101390.22
2022-07-29T02:33:10.686Z,101386.72
2022-07-29T02:35:39.395Z,101390.34
2022-07-29T02:38:24.956Z,101406.19
2022-07-29T02:40:54.030Z,101406.13
2022-07-29T02:43:24.588Z,101402.53
2022-07-29T02:45:56.945Z,101391.88
2022-07-29T02:48:33.901Z,101399.06
2022-07-29T02:51:09.094Z,101402.81
2022-07-29T02:53:43.488Z,101414.19
2022-07-29T02:56:15.326Z,101399.97
2022-07-29T02:58:48.626Z,101405.22
2022-07-29T03:01:23.049Z,101413.16
2022-07-29T03:03:52.698Z,101413.91
2022-07-29T03:06:31.091Z,101412.81
2022-07-29T03:09:12.755Z,101402.56
2022-07-29T03:11:46.383Z,101396.19
2022-07-29T03:14:20.803Z,101380.81
2022-07-29T03:16:51.457Z,101382.47
2022-07-29T03:19:19.943Z,101373.56
2022-07-29T03:21:47.850Z,101377.97
2022-07-29T03:24:27.556Z,101370.81
2022-07-29T03:26:56.778Z,101368.22
2022-07-29T03:29:24.709Z,101376.25
2022-07-29T03:32:03.347Z,101380.66
2022-07-29T03:34:32.085Z,101363.88
2022-07-29T03:36:59.789Z,101377.06
2022-07-29T03:39:31.687Z,101361.88
2022-07-29T03:42:02.962Z,101360.31
2022-07-29T03:44:32.779Z,101372.94
2022-07-29T03:47:03.831Z,101373.88
2022-07-29T03:49:32.957Z,101375.63
2022-07-29T03:52:00.966Z,101379.84
2022-07-29T03:54:28.690Z,101387.84
2022-07-29T03:57:00.049Z,101385.78
2022-07-29T03:59:29.001Z,101374.97
2022-07-29T04:01:58.158Z,101375.75
2022-07-29T04:04:28.371Z,101382.63
2022-07-29T04:06:56.374Z,101372.44
2022-07-29T04:09:24.025Z,101374.91
2022-07-29T04:12:02.408Z,101373.06
2022-07-29T04:14:31.780Z,101368.44
2022-07-29T04:16:59.433Z,101362.13
2022-07-29T04:19:28.581Z,101366.63
2022-07-29T04:21:56.233Z,101376.19
2022-07-29T04:24:24.397Z,101373.25
2022-07-29T04:26:52.106Z,101387.38
2022-07-29T04:29:20.804Z,101381.69
2022-07-29T04:31:48.672Z,101376.19
2022-07-29T04:34:16.679Z,101374.91
2022-07-29T04:36:46.121Z,101373.03
2022-07-29T04:39:16.120Z,101392.50
2022-07-29T04:41:45.780Z,101379.81
2022-07-29T04:44:14.292Z,101351.94
2022-07-29T04:46:42.202Z,101374.81
2022-07-29T04:49:09.984Z,101383.03
2022-07-29T04:51:37.696Z,101358.50
2022-07-29T04:54:07.050Z,101417.13
2022-07-29T04:56:34.699Z,101370.78
2022-07-29T04:59:02.407Z,101425.44
2022-07-29T05:01:30.166Z,101398.16
2022-07-29T05:04:00.511Z,101298.28
2022-07-29T05:06:28.629Z,101213.41
2022-07-29T05:08:56.255Z,100991.69
2022-07-29T05:11:30.245Z,101081.81
2022-07-29T05:13:58.264Z,101045.84
2022-07-29T05:16:25.902Z,101126.16
2022-07-29T05:18:53.565Z,101152.72
2022-07-29T05:21:21.256Z,101193.09
2022-07-29T05:23:48.916Z,101177.94
2022-07-29T05:26:16.546Z,101092.03
2022-07-29T05:28:45.640Z,100944.84
2022-07-29T05:31:15.466Z,101033.00
2022-07-29T05:33:43.165Z,101004.03
2022-07-29T05:36:11.036Z,100965.91
2022-07-29T05:38:38.784Z,100994.41
2022-07-29T05:41:07.563Z,100985.50
2022-07-29T05:43:35.323Z,101026.78
2022-07-29T05:46:04.447Z,101040.94
2022-07-29T05:48:32.094Z,101091.91
2022-07-29T05:51:00.066Z,101089.22
2022-07-29T05:53:27.717Z,101093.84
2022-07-29T05:55:55.670Z,101171.91
2022-07-29T05:58:23.375Z,101189.13
2022-07-29T06:00:51.308Z,101119.22
2022-07-29T06:03:20.264Z,101117.19
2022-07-29T06:05:48.250Z,101134.00
2022-07-29T06:08:15.832Z,101098.06
2022-07-29T06:10:43.593Z,101134.63
2022-07-29T06:13:11.307Z,101153.19
2022-07-29T06:15:39.060Z,101198.75
2022-07-29T06:18:10.025Z,101161.38
2022-07-29T06:20:40.121Z,101196.50
2022-07-29T06:23:07.815Z,101197.00
2022-07-29T06:25:36.803Z,101107.59
2022-07-29T06:28:05.423Z,101205.44
2022-07-29T06:30:33.203Z,101161.81
2022-07-29T06:33:01.343Z,101148.16
2022-07-29T06:35:38.839Z,101130.34
2022-07-29T06:38:34.030Z,101168.97
2022-07-29T06:41:03.597Z,101179.72
2022-07-29T06:43:34.843Z,101085.66
2022-07-29T06:46:04.109Z,101077.34
2022-07-29T06:48:32.280Z,101121.59
2022-07-29T06:51:00.121Z,101119.00
2022-07-29T06:53:29.417Z,101186.50
2022-07-29T06:55:57.126Z,101134.19
2022-07-29T06:58:24.737Z,101153.44
2022-07-29T07:00:52.733Z,101108.34
2022-07-29T07:03:21.475Z,101051.47
2022-07-29T07:05:49.318Z,101129.16
2022-07-29T07:08:17.974Z,101171.03
2022-07-29T07:10:47.699Z,101175.31
2022-07-29T07:13:18.091Z,101025.75
2022-07-29T07:15:46.274Z,101055.81
2022-07-29T07:18:13.838Z,101106.94
2022-07-29T07:20:41.521Z,101172.75
2022-07-29T07:23:09.131Z,101218.06
2022-07-29T07:25:36.722Z,101253.44
2022-07-29T07:28:08.243Z,100910.88
2022-07-29T07:30:35.917Z,100790.00
2022-07-29T07:33:03.537Z,100958.38
2022-07-29T07:35:31.485Z,100754.66
2022-07-29T07:37:59.383Z,100743.63
2022-07-29T07:40:27.578Z,100599.84
2022-07-29T07:42:55.493Z,100557.13
2022-07-29T07:45:24.705Z,100624.09
2022-07-29T07:47:52.473Z,100502.81
2022-07-29T07:50:20.155Z,100654.34
2022-07-29T07:52:49.721Z,100783.19
2022-07-29T07:55:17.876Z,100820.16
2022-07-29T07:57:45.902Z,100773.19
2022-07-29T08:00:15.451Z,100890.06
2022-07-29T08:02:45.998Z,100966.13
2022-07-29T08:05:17.886Z,100959.59
2022-07-29T08:07:47.590Z,100995.22
2022-07-29T08:10:15.641Z,100663.31
2022-07-29T08:12:44.429Z,100876.50
2022-07-29T08:15:12.134Z,100870.38
2022-07-29T08:17:39.768Z,100754.41
2022-07-29T08:20:09.370Z,100744.63
2022-07-29T08:22:36.999Z,100638.09
2022-07-29T08:25:05.053Z,100734.88
2022-07-29T08:27:43.304Z,100681.59
2022-07-29T08:30:12.373Z,100628.81
2022-07-29T08:32:56.137Z,100608.72
2022-07-29T08:35:26.447Z,100547.72
2022-07-29T08:37:55.096Z,100459.53
2022-07-29T08:40:32.217Z,100449.69
2022-07-29T08:43:00.929Z,100659.09
2022-07-29T08:45:31.458Z,100635.94
2022-07-29T08:47:59.185Z,100461.88
2022-07-29T08:50:28.133Z,100481.50
2022-07-29T08:52:59.738Z,100374.56
2022-07-29T08:55:28.450Z,100481.38
2022-07-29T08:57:57.477Z,100516.06
2022-07-29T09:00:27.134Z,100444.78
2022-07-29T09:03:00.148Z,100481.47
2022-07-29T09:05:30.130Z,100491.03
2022-07-29T09:07:58.331Z,100391.28
2022-07-29T09:10:26.195Z,100396.59
2022-07-29T09:12:54.250Z,100426.06
2022-07-29T09:15:21.924Z,100449.50
2022-07-29T09:17:51.076Z,100373.44
2022-07-29T09:20:20.266Z,100350.94
2022-07-29T09:22:50.424Z,100520.97
2022-07-29T09:25:35.568Z,100475.59
2022-07-29T09:28:09.838Z,100389.28
2022-07-29T09:30:38.442Z,100379.75
2022-07-29T09:33:07.123Z,100369.81
2022-07-29T09:35:34.716Z,100395.34
2022-07-29T09:38:13.518Z,100335.22
2022-07-29T09:40:41.486Z,100437.69
2022-07-29T09:43:13.364Z,100309.13
2022-07-29T09:45:41.523Z,100332.41
2022-07-29T09:48:18.268Z,100352.13
2022-07-29T09:50:49.340Z,100337.25
2022-07-29T09:53:32.762Z,100357.31
2022-07-29T09:56:00.442Z,100239.41
2022-07-29T09:58:28.045Z,100204.56
2022-07-29T10:00:57.514Z,100265.19
2022-07-29T10:03:25.833Z,100282.75
2022-07-29T10:06:07.814Z,100341.41
2022-07-29T10:08:36.933Z,100212.41
2022-07-29T10:11:12.781Z,100288.78
2022-07-29T10:13:40.971Z,100271.84
2022-07-29T10:16:09.476Z,100344.25
2022-07-29T10:18:37.544Z,100211.75
2022-07-29T10:21:05.555Z,100184.69
2022-07-29T10:23:46.393Z,100145.81
2022-07-29T10:26:17.726Z,100155.88
2022-07-29T10:28:45.455Z,100166.03
2022-07-29T10:31:17.658Z,100174.78
2022-07-29T10:33:54.700Z,100204.63
2022-07-29T10:36:40.221Z,100196.41
2022-07-29T10:39:22.857Z,100268.84
2022-07-29T10:42:20.104Z,100266.63
2022-07-29T10:44:49.700Z,100318.56
2022-07-29T10:47:25.722Z,100181.88
2022-07-29T10:49:59.172Z,100213.47
2022-07-29T10:52:58.548Z,100141.59
2022-07-29T10:55:37.573Z,100093.44
2022-07-29T10:58:17.891Z,100163.50
2022-07-29T11:00:46.721Z,100104.59
2022-07-29T11:03:49.219Z,100181.59
2022-07-29T11:06:21.726Z,100132.75
2022-07-29T11:09:35.093Z,100163.44
2022-07-29T11:12:06.527Z,100248.47
2022-07-29T11:15:01.538Z,100192.44
2022-07-29T11:17:37.413Z,100117.16
2022-07-29T11:20:33.761Z,100137.44
2022-07-29T11:23:01.806Z,100166.34
2022-07-29T11:25:50.221Z,100175.88
2022-07-29T11:28:22.868Z,100150.06
2022-07-29T11:30:56.162Z,100107.88
2022-07-29T11:33:54.501Z,100149.13
2022-07-29T11:36:17.760Z,100189.00
2022-07-29T11:38:45.499Z,100206.47
2022-07-29T11:41:23.753Z,100252.59
2022-07-29T11:43:53.121Z,100245.53
2022-07-29T11:46:50.711Z,100246.78
2022-07-29T11:49:22.276Z,100233.91
2022-07-29T11:52:02.578Z,100247.03
2022-07-29T11:54:57.205Z,100215.94
2022-07-29T11:57:22.479Z,100216.31
2022-07-29T11:59:50.806Z,100260.75
2022-07-29T12:02:37.313Z,100362.63
2022-07-29T12:07:54.298Z,100415.47
2022-07-29T12:10:29.821Z,100432.78
2022-07-29T12:12:58.492Z,100411.25
2022-07-29T12:15:45.909Z,100460.31
2022-07-29T12:18:18.678Z,100346.03
2022-07-29T12:20:47.683Z,100336.50
2022-07-29T12:23:17.380Z,100272.91
2022-07-29T12:25:49.930Z,100341.44
2022-07-29T12:28:26.403Z,100350.75
2022-07-29T12:30:54.854Z,100300.59
2022-07-29T12:33:26.360Z,100282.59
2022-07-29T12:36:06.721Z,100267.72
2022-07-29T12:38:35.732Z,100252.34
2022-07-29T12:41:04.735Z,100251.03
2022-07-29T12:43:32.782Z,100259.03
2022-07-29T12:46:14.870Z,100272.53
2022-07-29T12:48:45.442Z,100347.09
2022-07-29T12:51:15.649Z,100290.44
2022-07-29T12:53:43.445Z,100285.41
2022-07-29T12:56:41.784Z,100303.41
2022-07-29T12:59:14.432Z,100374.72
2022-07-29T13:01:42.196Z,100283.56
2022-07-29T13:04:11.484Z,100313.75
2022-07-29T13:06:42.693Z,100365.16
2022-07-29T13:09:16.257Z,100349.53
2022-07-29T13:11:48.635Z,100359.06
2022-07-29T13:14:32.169Z,100293.94
2022-07-29T13:17:06.893Z,100277.81
2022-07-29T13:19:38.783Z,100310.34
2022-07-29T13:22:07.061Z,100281.34
2022-07-29T13:24:35.357Z,100305.47
2022-07-29T13:27:05.652Z,100339.94
2022-07-29T13:29:34.103Z,100345.47
2022-07-29T13:32:01.882Z,100400.59
2022-07-29T13:34:29.642Z,100364.00
2022-07-29T13:36:58.851Z,100432.44
2022-07-29T13:39:26.516Z,100391.34
2022-07-29T13:41:54.482Z,100327.91
2022-07-29T13:44:24.175Z,100363.59
2022-07-29T13:46:51.883Z,100359.81
2022-07-29T13:49:19.721Z,100380.53
2022-07-29T13:51:47.772Z,100426.97
2022-07-29T13:54:17.151Z,100439.13
2022-07-29T13:56:44.897Z,100475.34
2022-07-29T13:59:14.651Z,100454.66
2022-07-29T14:01:43.087Z,100477.53
2022-07-29T14:04:12.223Z,100390.72
2022-07-29T14:06:40.552Z,100466.06
2022-07-29T14:09:09.571Z,100422.63
2022-07-29T14:11:39.343Z,100391.94
2022-07-29T14:14:07.366Z,100377.97
2022-07-29T14:16:37.099Z,100415.59
2022-07-29T14:19:08.246Z,100366.94
2022-07-29T14:21:36.542Z,100334.47
2022-07-29T14:24:05.210Z,100375.69
2022-07-29T14:26:47.233Z,100421.66
2022-07-29T14:29:14.886Z,100465.94
2022-07-29T14:31:43.993Z,100467.16
2022-07-29T14:34:11.919Z,100489.66
2022-07-29T14:36:39.624Z,100455.38
2022-07-29T14:39:07.238Z,100462.38
2022-07-29T14:41:34.892Z,100392.59
2022-07-29T14:44:04.211Z,100363.13
2022-07-29T14:46:32.007Z,100386.16
2022-07-29T14:48:59.746Z,100445.03
2022-07-29T14:51:32.434Z,100429.81
2022-07-29T14:54:00.739Z,100445.69
2022-07-29T14:56:46.358Z,100429.63
2022-07-29T14:59:16.156Z,100436.97
2022-07-29T15:01:43.795Z,100356.00
2022-07-29T15:04:11.401Z,100334.75
2022-07-29T15:06:39.088Z,100364.91
2022-07-29T15:09:06.940Z,100397.31
2022-07-29T15:11:38.217Z,100458.31
2022-07-29T15:14:06.553Z,100463.84
2022-07-29T15:16:37.456Z,100468.25
2022-07-29T15:19:05.410Z,100419.28
2022-07-29T15:21:33.076Z,100417.28
2022-07-29T15:24:00.799Z,100360.88
2022-07-29T15:26:28.562Z,100382.34
2022-07-29T15:28:57.358Z,100421.69
2022-07-29T15:31:25.008Z,100358.09
2022-07-29T15:33:58.079Z,100313.75
2022-07-29T15:36:50.797Z,100343.38
2022-07-29T15:39:14.827Z,100363.00
2022-07-29T15:41:42.456Z,100345.31
2022-07-29T15:44:10.944Z,100376.31
2022-07-29T15:46:56.430Z,100366.34
2022-07-29T15:49:48.433Z,100382.50
2022-07-29T15:52:18.203Z,100388.34
2022-07-29T15:54:46.168Z,100383.66
2022-07-29T15:57:14.177Z,100429.28
2022-07-29T15:59:41.910Z,100436.38
2022-07-29T16:02:11.185Z,100471.44
2022-07-29T16:04:40.200Z,100508.00
2022-07-29T16:07:08.041Z,100538.91
2022-07-29T16:09:35.696Z,100539.25
2022-07-29T16:12:03.265Z,100524.47
2022-07-29T16:14:38.861Z,100488.09
2022-07-29T16:17:06.549Z,100447.25
2022-07-29T16:19:34.582Z,100414.63
2022-07-29T16:22:03.572Z,100425.94
2022-07-29T16:24:32.883Z,100423.00
2022-07-29T16:27:01.092Z,100414.22
2022-07-29T16:29:29.086Z,100373.13
2022-07-29T16:31:57.032Z,100311.91
2022-07-29T16:34:24.706Z,100307.59
2022-07-29T16:36:52.651Z,100278.91
2022-07-29T16:39:21.579Z,100292.25
2022-07-29T16:41:49.237Z,100288.16
2022-07-29T16:44:16.870Z,100286.75
2022-07-29T16:46:45.672Z,100284.75
2022-07-29T16:49:19.054Z,100312.34
2022-07-29T16:51:47.718Z,100320.28
2022-07-29T16:54:15.496Z,100339.72
2022-07-29T16:56:44.444Z,100369.84
2022-07-29T16:59:12.104Z,100359.94
2022-07-29T17:01:39.753Z,100359.09
2022-07-29T17:04:07.494Z,100348.91
2022-07-29T17:06:35.898Z,100332.91
2022-07-29T17:09:05.274Z,100334.72
2022-07-29T17:11:53.333Z,100316.00
2022-07-29T17:14:24.845Z,100324.13
2022-07-29T17:17:00.877Z,100314.09
2022-07-29T17:19:30.455Z,100333.63
2022-07-29T17:22:06.770Z,100330.41
2022-07-29T17:24:38.385Z,100323.63
2022-07-29T17:27:07.222Z,100336.81
2022-07-29T17:29:36.296Z,100366.09
2022-07-29T17:32:04.344Z,100366.94
2022-07-29T17:34:36.197Z,100357.94
2022-07-29T17:37:04.298Z,100369.06
2022-07-29T17:39:32.081Z,100382.72
2022-07-29T17:42:00.478Z,100382.44
2022-07-29T17:44:28.130Z,100366.41
2022-07-29T17:46:57.609Z,100367.09
2022-07-29T17:49:25.463Z,100349.06
2022-07-29T17:51:55.479Z,100348.56
2022-07-29T17:54:28.194Z,100339.56
2022-07-29T17:56:56.302Z,100342.00
2022-07-29T17:59:24.185Z,100350.59
2022-07-29T18:01:52.331Z,100344.31
2022-07-29T18:04:23.369Z,100341.63
2022-07-29T18:06:51.286Z,100344.59
2022-07-29T18:09:19.006Z,100352.66
2022-07-29T18:11:47.511Z,100346.19
2022-07-29T18:14:15.274Z,100352.53
2022-07-29T18:16:42.962Z,100345.41
2022-07-29T18:19:10.629Z,100350.25
2022-07-29T18:21:51.344Z,100357.41
2022-07-29T18:24:22.498Z,100351.81
2022-07-29T18:26:50.070Z,100353.75
2022-07-29T18:29:17.705Z,100359.91
2022-07-29T18:31:45.347Z,100365.38
2022-07-29T18:34:13.017Z,100372.00
2022-07-29T18:36:41.995Z,100383.78
2022-07-29T18:39:09.680Z,100390.28
2022-07-29T18:41:50.275Z,100386.72
2022-07-29T18:44:18.892Z,100389.63
2022-07-29T18:46:57.488Z,100385.34
2022-07-29T18:49:25.836Z,100394.22
2022-07-29T18:51:56.756Z,100397.09
2022-07-29T18:54:24.635Z,100396.53
2022-07-29T18:56:52.972Z,100401.97
2022-07-29T18:59:20.596Z,100427.50
2022-07-29T19:01:48.837Z,100423.06
2022-07-29T19:04:17.095Z,100414.69
2022-07-29T19:06:44.730Z,100425.41
2022-07-29T19:09:13.919Z,100460.63
2022-07-29T19:11:41.892Z,100451.06
2022-07-29T19:14:09.620Z,100469.09
2022-07-29T19:16:37.203Z,100450.50
2022-07-29T19:19:05.875Z,100465.34
2022-07-29T19:21:33.510Z,100474.50
2022-07-29T19:24:06.545Z,100477.34
2022-07-29T19:26:42.000Z,100494.44
2022-07-29T19:29:09.631Z,100493.50
2022-07-29T19:31:37.240Z,100510.66
2022-07-29T19:34:04.995Z,100517.88
2022-07-29T19:36:32.765Z,100521.91
2022-07-29T19:39:00.539Z,100524.56
2022-07-29T19:41:28.555Z,100535.88
2022-07-29T19:43:57.714Z,100557.81
2022-07-29T19:46:28.723Z,100550.50
2022-07-29T19:48:57.028Z,100568.25
2022-07-29T19:51:25.064Z,100564.94
2022-07-29T19:53:52.768Z,100573.94
2022-07-29T19:56:20.511Z,100564.56
2022-07-29T19:58:48.669Z,100566.88
2022-07-29T20:01:17.763Z,100564.63
2022-07-29T20:03:46.525Z,100573.06
2022-07-29T20:06:14.202Z,100569.19
2022-07-29T20:08:42.962Z,100576.63
2022-07-29T20:11:10.577Z,100600.22
2022-07-29T20:13:38.231Z,100592.34
2022-07-29T20:16:08.297Z,100586.53
2022-07-29T20:18:37.499Z,100600.81
2022-07-29T20:21:05.216Z,100591.56
2022-07-29T20:23:33.707Z,100583.16
2022-07-29T20:26:01.437Z,100589.59
2022-07-29T20:28:29.061Z,100594.88
2022-07-29T20:30:56.834Z,100600.00
2022-07-29T20:33:24.554Z,100590.44
2022-07-29T20:35:53.636Z,100590.75
2022-07-29T20:38:21.342Z,100590.75
2022-07-29T20:40:50.661Z,100597.34
2022-07-29T20:43:18.407Z,100597.50
2022-07-29T20:45:46.594Z,100596.66
2022-07-29T20:48:14.401Z,100599.81
2022-07-29T20:50:42.646Z,100605.25
2022-07-29T20:53:11.836Z,100610.00
2022-07-29T20:55:39.508Z,100612.00
2022-07-29T20:58:07.150Z,100627.13
2022-07-29T21:00:35.052Z,100629.00
2022-07-29T21:03:02.727Z,100628.31
2022-07-29T21:05:30.394Z,100644.59
2022-07-29T21:07:58.374Z,100645.47
2022-07-29T21:10:28.359Z,100639.88
2022-07-29T21:12:55.981Z,100653.34
2022-07-29T21:15:24.022Z,100654.88
2022-07-29T21:17:59.575Z,100649.47
2022-07-29T21:20:27.783Z,100650.44
2022-07-29T21:22:55.818Z,100653.16
2022-07-29T21:25:23.773Z,100638.88
2022-07-29T21:28:10.704Z,100646.16
2022-07-29T21:30:38.445Z,100652.06
2022-07-29T21:33:06.107Z,100643.34
2022-07-29T21:36:07.331Z,100653.22
2022-07-29T21:38:21.465Z,100642.06
2022-07-29T21:40:51.807Z,100652.25
2022-07-29T21:43:21.024Z,100639.25
2022-07-29T21:45:50.220Z,100644.66
2022-07-29T21:48:18.294Z,100634.41
2022-07-29T21:50:46.836Z,100648.53
2022-07-29T21:53:15.857Z,100639.84
2022-07-29T21:55:44.035Z,100643.88
2022-07-29T21:58:12.503Z,100645.13
2022-07-29T22:00:41.970Z,100644.28
2022-07-29T22:03:09.800Z,100639.28
2022-07-29T22:05:37.565Z,100639.56
2022-07-29T22:08:05.896Z,100645.88
2022-07-29T22:10:33.571Z,100635.84
2022-07-29T22:13:02.580Z,100636.03
2022-07-29T22:15:31.007Z,100638.47
2022-07-29T22:18:01.550Z,100622.88
2022-07-29T22:20:29.206Z,100637.47
2022-07-29T22:22:57.108Z,100630.22
2022-07-29T22:25:24.795Z,100632.63
2022-07-29T22:27:52.528Z,100641.50
2022-07-29T22:30:20.120Z,100636.50
2022-07-29T22:32:48.062Z,100647.06
2022-07-29T22:35:17.630Z,100652.78
2022-07-29T22:37:45.281Z,100646.66
2022-07-29T22:40:13.204Z,100639.66
2022-07-29T22:42:41.131Z,100642.50
2022-07-29T22:45:10.610Z,100627.63
2022-07-29T22:47:46.162Z,100625.34
2022-07-29T22:50:17.938Z,100630.94
2022-07-29T22:52:46.034Z,100617.34
2022-07-29T22:55:14.070Z,100615.19
2022-07-29T22:57:41.858Z,100614.75
2022-07-29T23:00:11.137Z,100614.63
2022-07-29T23:02:40.131Z,100612.16
2022-07-29T23:05:09.313Z,100601.31
2022-07-29T23:07:38.682Z,100608.16
2022-07-29T23:10:07.392Z,100603.44
2022-07-29T23:12:35.017Z,100615.41
2022-07-29T23:15:02.681Z,100613.38
2022-07-29T23:17:32.226Z,100618.25
2022-07-29T23:20:06.430Z,100632.06
2022-07-29T23:22:34.129Z,100634.75
2022-07-29T23:25:03.153Z,100636.06
2022-07-29T23:27:30.841Z,100626.06
2022-07-29T23:29:58.752Z,100638.00
2022-07-29T23:32:26.530Z,100643.56
2022-07-29T23:34:54.414Z,100652.84
2022-07-29T23:37:22.038Z,100641.13
2022-07-29T23:39:49.655Z,100647.81
2022-07-29T23:42:18.707Z,100654.34
2022-07-29T23:44:46.358Z,100656.81
2022-07-29T23:47:14.192Z,100656.22
2022-07-29T23:49:41.824Z,100664.59
2022-07-29T23:52:09.506Z,100667.53
2022-07-29T23:54:37.102Z,100662.41
2022-07-29T23:57:05.011Z,100668.97
2022-07-29T23:59:33.936Z,100678.06
